Time;durP1;ratioP1;P1;durP2;ratioP2;P2;SDS_P1;SDS_P2;PMS_P1;PMS_P2;Temp;Humidity;BMP_temperature;BMP_pressure;BME280_temperature;BME280_humidity;BME280_pressure;Samples;Min_cycle;Max_cycle;Signal;HPM_P1;HPM_P2
2024/04/04 00:01:50;;;;;;;9.38;0.82;;;10.30;99.90;;;;;;6177259;23;20446;-74
2024/04/04 00:04:17;;;;;;;8.70;0.98;;;10.30;99.90;;;;;;6150860;23;20012;-74
2024/04/04 00:06:44;;;;;;;8.45;1.15;;;10.30;99.90;;;;;;6176241;23;20013;-74
2024/04/04 00:09:10;;;;;;;4.60;0.60;;;10.20;99.90;;;;;;6142867;23;20020;-74
2024/04/04 00:11:37;;;;;;;6.28;0.60;;;10.10;99.90;;;;;;6151119;23;20009;-74
2024/04/04 00:14:05;;;;;;;5.07;0.77;;;10.00;99.90;;;;;;6140174;23;20020;-74
2024/04/04 00:16:36;;;;;;;5.65;0.73;;;9.90;99.90;;;;;;6151319;23;20008;-74
2024/04/04 00:19:03;;;;;;;3.88;0.60;;;9.80;99.90;;;;;;6115450;23;20362;-74
2024/04/04 00:21:30;;;;;;;8.52;1.00;;;9.80;99.90;;;;;;6151308;23;20318;-73
2024/04/04 00:23:59;;;;;;;6.28;0.90;;;9.70;99.90;;;;;;6140424;23;20478;-74
2024/04/04 00:26:25;;;;;;;6.05;0.60;;;9.60;99.90;;;;;;6177769;23;20005;-74
2024/04/04 00:28:52;;;;;;;6.78;1.38;;;9.50;99.90;;;;;;6115282;23;20013;-74
2024/04/04 00:31:19;;;;;;;3.92;0.45;;;9.50;99.90;;;;;;6141280;23;20019;-73
2024/04/04 00:33:46;;;;;;;8.82;0.60;;;9.40;99.90;;;;;;6141614;23;20404;-73
2024/04/04 00:36:13;;;;;;;3.88;0.50;;;9.40;99.90;;;;;;6155449;23;20001;-73
2024/04/04 00:38:39;;;;;;;7.35;1.05;;;9.30;99.90;;;;;;6180803;23;20315;-74
2024/04/04 00:41:06;;;;;;;5.30;0.55;;;9.30;99.90;;;;;;6155565;23;20015;-74
2024/04/04 00:43:34;;;;;;;4.00;0.57;;;9.20;99.90;;;;;;6205374;23;20031;-73
2024/04/04 00:46:02;;;;;;;6.20;1.05;;;9.10;99.90;;;;;;6121497;23;20028;-74
2024/04/04 00:48:29;;;;;;;4.45;0.60;;;9.10;99.90;;;;;;6154309;23;20009;-74
2024/04/04 00:50:56;;;;;;;3.83;0.60;;;9.10;99.90;;;;;;6154777;23;20008;-74
2024/04/04 00:53:25;;;;;;;7.45;0.80;;;9.00;99.90;;;;;;6181863;23;20005;-74
2024/04/04 00:55:54;;;;;;;4.85;0.50;;;9.00;99.90;;;;;;6180852;23;20009;-74
2024/04/04 00:58:21;;;;;;;5.78;0.52;;;8.90;99.90;;;;;;6153646;23;20478;-73
2024/04/04 01:00:47;;;;;;;4.68;0.65;;;8.90;99.90;;;;;;6145811;23;20335;-74
2024/04/04 01:03:14;;;;;;;3.17;0.73;;;8.80;99.90;;;;;;6155489;23;20001;-74
2024/04/04 01:05:40;;;;;;;3.88;0.63;;;8.80;99.90;;;;;;6145016;23;20012;-74
2024/04/04 01:08:08;;;;;;;2.95;0.40;;;8.80;99.90;;;;;;6144753;23;20021;-73
2024/04/04 01:10:34;;;;;;;6.55;0.68;;;8.80;99.90;;;;;;6180993;23;20016;-74
2024/04/04 01:13:01;;;;;;;5.65;0.63;;;8.80;99.90;;;;;;6155736;23;20013;-74
2024/04/04 01:15:27;;;;;;;4.07;0.75;;;8.80;99.90;;;;;;6155589;23;20096;-74
2024/04/04 01:17:53;;;;;;;2.58;0.50;;;8.90;99.90;;;;;;6120949;23;20013;-74
2024/04/04 01:20:20;;;;;;;6.00;0.70;;;8.90;99.90;;;;;;6180883;23;20016;-73
2024/04/04 01:22:46;;;;;;;3.70;0.40;;;8.80;99.90;;;;;;6182397;23;20009;-76
2024/04/04 01:25:13;;;;;;;4.72;0.50;;;8.90;99.90;;;;;;6119995;23;20039;-73
2024/04/04 01:27:39;;;;;;;6.15;0.90;;;8.90;99.90;;;;;;6181508;23;20005;-73
2024/04/04 01:30:06;;;;;;;5.35;0.70;;;9.00;99.90;;;;;;6143922;23;20355;-73
2024/04/04 01:32:32;;;;;;;6.43;0.70;;;9.10;99.90;;;;;;6155360;23;20009;-73
2024/04/04 01:34:59;;;;;;;5.25;0.73;;;9.20;99.90;;;;;;6155764;23;20506;-73
2024/04/04 01:37:25;;;;;;;2.67;0.52;;;9.30;99.90;;;;;;6181542;23;20001;-73
2024/04/04 01:39:51;;;;;;;5.90;0.50;;;9.40;99.90;;;;;;6144010;23;20017;-74
2024/04/04 01:42:18;;;;;;;4.82;0.68;;;9.40;99.90;;;;;;6120570;23;20020;-74
2024/04/04 01:44:44;;;;;;;4.10;0.60;;;9.50;99.90;;;;;;6120468;23;20020;-74
2024/04/04 01:47:10;;;;;;;8.98;0.68;;;9.50;99.90;;;;;;6154634;23;20012;-75
2024/04/04 01:49:37;;;;;;;5.65;0.60;;;9.50;99.90;;;;;;6179494;23;20435;-75
2024/04/04 01:52:04;;;;;;;5.55;0.68;;;9.50;99.90;;;;;;6180106;23;20016;-75
2024/04/04 01:54:30;;;;;;;7.00;0.50;;;9.50;99.90;;;;;;6145143;23;20466;-74
2024/04/04 01:56:56;;;;;;;4.38;0.70;;;9.50;99.90;;;;;;6180952;23;20001;-75
2024/04/04 01:59:23;;;;;;;3.70;0.60;;;9.50;99.90;;;;;;6204970;23;20256;-75
2024/04/04 02:01:49;;;;;;;4.15;0.50;;;9.50;99.90;;;;;;6154454;23;20012;-75
2024/04/04 02:04:15;;;;;;;4.93;0.70;;;9.50;99.90;;;;;;6144085;23;20019;-76
2024/04/04 02:06:41;;;;;;;3.42;0.50;;;9.50;99.90;;;;;;6143942;23;20011;-75
2024/04/04 02:09:08;;;;;;;4.40;0.55;;;9.50;99.90;;;;;;6196933;23;20009;-75
2024/04/04 02:11:35;;;;;;;2.95;0.40;;;9.50;99.90;;;;;;6144626;23;20017;-75
2024/04/04 02:14:01;;;;;;;2.15;0.30;;;9.50;99.90;;;;;;6144137;23;20497;-75
2024/04/04 02:16:29;;;;;;;3.75;0.70;;;9.50;99.90;;;;;;6144677;23;20453;-75
2024/04/04 02:18:55;;;;;;;4.38;0.52;;;9.50;99.90;;;;;;6179952;23;20327;-75
2024/04/04 02:21:21;;;;;;;3.72;0.50;;;9.50;99.90;;;;;;6169264;23;20017;-75
2024/04/04 02:23:48;;;;;;;4.13;0.77;;;9.60;99.90;;;;;;6145171;23;20033;-75
2024/04/04 02:26:14;;;;;;;3.15;0.30;;;9.60;99.90;;;;;;6144881;23;20012;-75
2024/04/04 02:28:40;;;;;;;3.50;0.40;;;9.60;99.90;;;;;;6177660;23;19997;-76
2024/04/04 02:31:06;;;;;;;4.47;0.50;;;9.60;99.90;;;;;;6154403;23;20005;-75
2024/04/04 02:33:33;;;;;;;5.88;0.82;;;9.60;99.90;;;;;;6193817;23;20450;-75
2024/04/04 02:35:59;;;;;;;3.53;0.35;;;9.60;99.90;;;;;;6143635;23;20368;-75
2024/04/04 02:38:26;;;;;;;2.10;0.40;;;9.60;99.90;;;;;;6180016;23;20005;-75
2024/04/04 02:40:53;;;;;;;4.80;0.52;;;9.70;99.90;;;;;;6143432;23;20016;-75
2024/04/04 02:43:19;;;;;;;2.33;0.40;;;9.70;99.90;;;;;;6181015;23;20009;-75
2024/04/04 02:45:46;;;;;;;2.72;0.40;;;9.70;99.90;;;;;;6119548;23;20020;-75
2024/04/04 02:48:12;;;;;;;4.90;0.50;;;9.70;99.90;;;;;;6154186;23;20016;-75
2024/04/04 02:50:38;;;;;;;4.38;0.57;;;9.70;99.90;;;;;;6143532;23;20412;-76
2024/04/04 02:53:05;;;;;;;4.18;0.70;;;9.70;99.90;;;;;;6153920;23;20009;-75
2024/04/04 02:55:32;;;;;;;2.80;0.60;;;9.70;99.90;;;;;;6154142;23;20097;-74
2024/04/04 02:57:59;;;;;;;3.13;0.75;;;9.70;99.90;;;;;;6094326;23;20016;-75
2024/04/04 03:00:25;;;;;;;3.78;0.60;;;9.70;99.90;;;;;;6118473;23;20024;-74
2024/04/04 03:02:52;;;;;;;1.88;0.52;;;9.70;99.90;;;;;;6181293;23;20009;-74
2024/04/04 03:05:18;;;;;;;3.10;0.40;;;9.70;99.90;;;;;;6143998;23;20012;-75
2024/04/04 03:07:44;;;;;;;2.60;0.70;;;9.70;99.90;;;;;;6118889;23;20473;-76
2024/04/04 03:10:11;;;;;;;3.80;0.77;;;9.70;99.90;;;;;;6153223;23;20013;-76
2024/04/04 03:12:38;;;;;;;3.00;0.60;;;9.70;99.90;;;;;;6144652;23;20477;-76
2024/04/04 03:15:05;;;;;;;3.20;0.55;;;9.70;99.90;;;;;;6154192;23;20004;-76
2024/04/04 03:17:31;;;;;;;3.05;0.50;;;9.70;99.90;;;;;;6119458;23;20017;-76
2024/04/04 03:19:57;;;;;;;3.75;0.50;;;9.70;99.90;;;;;;6142987;23;20346;-76
2024/04/04 03:22:24;;;;;;;2.75;0.38;;;9.70;99.90;;;;;;6179602;23;20439;-76
2024/04/04 03:24:50;;;;;;;3.10;0.40;;;9.60;99.90;;;;;;6144284;23;20460;-76
2024/04/04 03:27:16;;;;;;;3.63;0.50;;;9.70;99.90;;;;;;6143679;23;20354;-76
2024/04/04 03:29:43;;;;;;;4.05;0.82;;;9.60;99.90;;;;;;6153484;23;20004;-76
2024/04/04 03:32:09;;;;;;;3.10;0.60;;;9.60;99.90;;;;;;6178586;23;20009;-76
2024/04/04 03:34:35;;;;;;;2.85;0.60;;;9.60;99.90;;;;;;6180699;23;20009;-76
2024/04/04 03:37:02;;;;;;;3.72;0.57;;;9.60;99.90;;;;;;6153499;23;20012;-76
2024/04/04 03:39:29;;;;;;;1.95;0.50;;;9.60;99.90;;;;;;6143595;23;20486;-77
2024/04/04 03:41:55;;;;;;;4.68;0.60;;;9.60;99.90;;;;;;6144476;23;20027;-77
2024/04/04 03:44:21;;;;;;;2.25;0.60;;;9.60;99.90;;;;;;6179153;23;20005;-76
2024/04/04 03:46:48;;;;;;;5.00;0.82;;;9.60;99.90;;;;;;6179068;23;20009;-76
2024/04/04 03:49:14;;;;;;;3.92;0.85;;;9.60;99.90;;;;;;6179280;23;20465;-76
2024/04/04 03:51:40;;;;;;;3.42;0.82;;;9.60;99.90;;;;;;6118690;23;20020;-77
2024/04/04 03:54:07;;;;;;;3.33;0.70;;;9.60;99.90;;;;;;6144623;23;20481;-77
2024/04/04 03:56:33;;;;;;;2.80;0.73;;;9.60;99.90;;;;;;6181158;23;20012;-76
2024/04/04 03:58:59;;;;;;;4.95;0.82;;;9.60;99.90;;;;;;6177973;23;20009;-76
2024/04/04 04:01:26;;;;;;;3.85;0.90;;;9.60;99.90;;;;;;6179629;23;20432;-76
2024/04/04 04:03:52;;;;;;;5.72;1.42;;;9.60;99.90;;;;;;6144061;23;20024;-77
2024/04/04 04:06:18;;;;;;;5.78;1.27;;;9.60;99.90;;;;;;6180837;23;20001;-78
2024/04/04 04:08:45;;;;;;;4.00;0.95;;;9.60;99.90;;;;;;6142111;23;20013;-78
2024/04/04 04:11:11;;;;;;;2.95;0.60;;;9.60;99.90;;;;;;6142711;23;20021;-79
2024/04/04 04:13:37;;;;;;;4.30;0.68;;;9.60;99.90;;;;;;6119394;23;20009;-78
2024/04/04 04:16:03;;;;;;;3.08;1.05;;;9.60;99.90;;;;;;6178595;23;20005;-80
2024/04/04 04:18:30;;;;;;;2.30;0.43;;;9.70;99.90;;;;;;6141880;23;20024;-80
2024/04/04 04:23:47;;;;;;;3.97;0.68;;;9.60;99.90;;;;;;6180819;23;20008;-80
2024/04/04 04:26:13;;;;;;;1.00;0.50;;;9.70;99.90;;;;;;6153936;23;20061;-80
2024/04/04 04:28:40;;;;;;;2.97;0.70;;;9.70;99.90;;;;;;6179441;23;20498;-79
2024/04/04 04:31:27;;;;;;;2.30;0.90;;;9.70;99.90;;;;;;6143519;23;20016;-79
2024/04/04 04:33:55;;;;;;;3.15;0.95;;;9.70;99.90;;;;;;6153003;23;20485;-78
2024/04/04 04:36:24;;;;;;;2.60;0.50;;;9.70;99.90;;;;;;6152945;23;20001;-79
2024/04/04 04:38:51;;;;;;;2.85;0.82;;;9.70;99.90;;;;;;6151958;23;20009;-80
2024/04/04 04:41:21;;;;;;;3.30;0.68;;;9.70;99.90;;;;;;6153699;23;20009;-79
2024/04/04 04:43:48;;;;;;;5.97;1.38;;;9.70;99.90;;;;;;6154512;23;20002;-81
2024/04/04 04:46:18;;;;;;;3.72;1.25;;;9.70;99.90;;;;;;6143711;23;20024;-79
2024/04/04 04:48:45;;;;;;;3.67;1.20;;;9.70;99.90;;;;;;6150764;23;20016;-79
2024/04/04 04:51:12;;;;;;;4.80;1.50;;;9.80;99.90;;;;;;6144121;23;20563;-78
2024/04/04 04:53:40;;;;;;;4.65;1.58;;;9.70;99.90;;;;;;6143774;23;20013;-79
2024/04/04 04:56:06;;;;;;;4.85;1.70;;;9.80;99.90;;;;;;6178657;23;20298;-79
2024/04/04 04:58:33;;;;;;;8.73;3.47;;;9.80;99.90;;;;;;6118272;23;20017;-78
2024/04/04 05:00:59;;;;;;;7.65;3.00;;;9.80;99.90;;;;;;6180614;23;20005;-79
2024/04/04 05:03:28;;;;;;;5.72;1.77;;;9.90;99.90;;;;;;6119505;23;20384;-79
2024/04/04 05:05:55;;;;;;;4.88;2.00;;;9.90;99.90;;;;;;6178968;23;20008;-79
2024/04/04 05:08:21;;;;;;;4.55;1.83;;;10.00;99.90;;;;;;6170695;23;20450;-79
2024/04/04 05:10:48;;;;;;;6.80;2.53;;;10.10;99.90;;;;;;6117594;23;20013;-78
2024/04/04 05:13:14;;;;;;;3.25;2.10;;;10.10;99.90;;;;;;6178867;23;20002;-78
2024/04/04 05:15:53;;;;;;;4.75;2.05;;;10.20;99.90;;;;;;6143358;23;20013;-77
2024/04/04 05:18:23;;;;;;;8.02;3.13;;;10.30;99.90;;;;;;6118563;23;20002;-78
2024/04/04 05:20:58;;;;;;;4.78;1.90;;;10.30;99.90;;;;;;6143782;23;20136;-78
2024/04/04 05:23:24;;;;;;;3.67;1.63;;;10.30;99.90;;;;;;6145916;23;20024;-78
2024/04/04 05:25:51;;;;;;;6.63;2.05;;;10.40;99.90;;;;;;6146100;23;20020;-77
2024/04/04 05:28:17;;;;;;;3.45;1.15;;;10.40;99.90;;;;;;6120611;23;20013;-76
2024/04/04 05:30:44;;;;;;;6.07;2.10;;;10.50;99.90;;;;;;6144866;23;20013;-78
2024/04/04 05:33:10;;;;;;;8.35;2.42;;;10.50;99.90;;;;;;6145339;23;20032;-78
2024/04/04 05:35:36;;;;;;;6.75;2.08;;;10.50;99.90;;;;;;6155919;23;20012;-78
2024/04/04 05:38:03;;;;;;;6.53;2.10;;;10.60;99.90;;;;;;6145353;23;20024;-78
2024/04/04 05:40:29;;;;;;;6.65;1.80;;;10.60;99.90;;;;;;6121229;23;20382;-78
2024/04/04 05:42:56;;;;;;;6.53;2.00;;;10.60;99.90;;;;;;6145094;23;20009;-78
2024/04/04 05:45:22;;;;;;;8.45;2.47;;;10.60;99.90;;;;;;6180759;23;20020;-79
2024/04/04 05:47:48;;;;;;;6.43;2.40;;;10.60;99.90;;;;;;6145227;23;20696;-79
2024/04/04 05:50:14;;;;;;;8.10;2.63;;;10.70;99.90;;;;;;6145058;23;20009;-80
2024/04/04 05:52:41;;;;;;;4.65;1.85;;;10.70;99.90;;;;;;6205366;23;20005;-81
2024/04/04 05:55:11;;;;;;;5.13;1.92;;;10.80;99.90;;;;;;6169810;23;20021;-82
2024/04/04 05:57:37;;;;;;;7.47;2.40;;;10.80;99.90;;;;;;6145235;23;20016;-81
2024/04/04 06:00:05;;;;;;;5.40;1.35;;;10.80;99.90;;;;;;6145169;23;20481;-81
2024/04/04 06:02:38;;;;;;;6.65;2.03;;;10.80;99.90;;;;;;6145325;23;20383;-81
2024/04/04 06:05:05;;;;;;;5.90;2.08;;;10.90;99.90;;;;;;6145207;23;20013;-80
2024/04/04 06:07:31;;;;;;;4.93;1.83;;;10.90;99.90;;;;;;6144847;23;20013;-86
2024/04/04 06:09:58;;;;;;;9.82;3.40;;;10.90;99.90;;;;;;6146751;23;20017;-82
2024/04/04 06:12:24;;;;;;;13.45;6.68;;;10.90;99.90;;;;;;6122064;23;20412;-86
2024/04/04 06:14:51;;;;;;;9.25;3.75;;;10.90;99.90;;;;;;6184525;23;20370;-87
2024/04/04 06:17:17;;;;;;;7.45;2.70;;;11.00;99.90;;;;;;6123049;23;20013;-85
2024/04/04 06:19:44;;;;;;;7.65;2.40;;;11.00;99.90;;;;;;6146813;23;20040;-84
2024/04/04 06:22:10;;;;;;;9.55;2.45;;;11.00;99.90;;;;;;6185254;23;20056;-86
2024/04/04 06:24:36;;;;;;;9.73;3.55;;;11.00;99.90;;;;;;6184448;23;20499;-87
2024/04/04 06:27:03;;;;;;;8.68;3.55;;;11.10;99.90;;;;;;6147259;23;20442;-80
2024/04/04 06:29:30;;;;;;;5.75;2.17;;;11.10;99.90;;;;;;6146432;23;20012;-81
2024/04/04 06:31:59;;;;;;;9.32;2.22;;;11.10;99.90;;;;;;6147023;23;20017;-83
2024/04/04 06:34:26;;;;;;;6.43;1.40;;;11.20;99.90;;;;;;6122783;23;20481;-80
2024/04/04 06:36:52;;;;;;;8.93;2.30;;;11.20;99.90;;;;;;6182454;23;20005;-86
2024/04/04 06:39:18;;;;;;;7.80;2.58;;;11.20;99.90;;;;;;6120678;23;20013;-83
2024/04/04 06:41:44;;;;;;;9.18;2.20;;;11.30;99.90;;;;;;6145926;23;20017;-84
2024/04/04 06:44:11;;;;;;;9.35;2.58;;;11.30;99.90;;;;;;6146521;23;20013;-85
2024/04/04 06:46:37;;;;;;;12.85;3.10;;;11.30;99.90;;;;;;6157432;23;20005;-83
2024/04/04 06:49:04;;;;;;;11.88;2.63;;;11.30;99.90;;;;;;6181640;23;20004;-84
2024/04/04 06:51:31;;;;;;;9.68;2.65;;;11.30;99.90;;;;;;6169961;23;20024;-85
2024/04/04 06:53:58;;;;;;;11.65;2.75;;;11.40;99.90;;;;;;6183237;23;20108;-86
2024/04/04 06:56:24;;;;;;;9.48;4.05;;;11.40;99.90;;;;;;6146922;23;20020;-86
2024/04/04 06:58:50;;;;;;;12.57;4.65;;;11.40;99.90;;;;;;6180683;23;20009;-82
2024/04/04 07:01:17;;;;;;;7.72;3.58;;;11.40;99.90;;;;;;6156248;23;19997;-83
2024/04/04 07:03:43;;;;;;;5.88;2.53;;;11.40;99.90;;;;;;6145530;23;20020;-82
2024/04/04 07:06:10;;;;;;;8.32;1.88;;;11.50;99.90;;;;;;6182194;23;20016;-80
2024/04/04 07:08:38;;;;;;;8.73;1.80;;;11.50;99.90;;;;;;6172010;23;20040;-84
2024/04/04 07:11:05;;;;;;;9.50;2.80;;;11.50;99.90;;;;;;6146122;23;20469;-86
2024/04/04 07:13:36;;;;;;;7.93;2.20;;;11.60;99.90;;;;;;6157515;23;20009;-86
2024/04/04 07:16:04;;;;;;;11.20;2.85;;;11.60;99.90;;;;;;6133419;23;20438;-87
2024/04/04 07:18:31;;;;;;;8.98;2.17;;;11.60;99.90;;;;;;6157212;23;20512;-90
2024/04/04 07:20:58;;;;;;;5.53;1.73;;;11.60;99.90;;;;;;6148966;23;20040;-88
2024/04/04 07:23:24;;;;;;;11.95;2.55;;;11.60;99.90;;;;;;6160708;23;20008;-82
2024/04/04 07:25:51;;;;;;;8.20;2.38;;;11.70;99.90;;;;;;6147368;23;20012;-83
2024/04/04 07:28:18;;;;;;;9.15;2.10;;;11.70;99.90;;;;;;6131656;23;20016;-88
2024/04/04 07:30:45;;;;;;;9.32;2.17;;;11.70;99.90;;;;;;6181652;23;20008;-86
2024/04/04 07:33:12;;;;;;;8.20;1.63;;;11.70;99.90;;;;;;6121441;23;20017;-84
2024/04/04 07:35:38;;;;;;;11.05;2.30;;;11.80;99.90;;;;;;6170590;23;20016;-83
2024/04/04 07:38:05;;;;;;;6.22;1.65;;;11.80;99.90;;;;;;6144691;23;20013;-86
2024/04/04 07:40:39;;;;;;;7.25;1.40;;;11.80;99.90;;;;;;6119286;23;20009;-81
2024/04/04 07:43:07;;;;;;;8.57;2.28;;;11.80;99.90;;;;;;6130170;23;20005;-83
2024/04/04 07:45:40;;;;;;;7.00;1.60;;;11.80;99.90;;;;;;6154752;23;20466;-82
2024/04/04 07:48:13;;;;;;;7.38;2.60;;;11.80;99.90;;;;;;6144315;23;20008;-81
2024/04/04 07:50:40;;;;;;;6.97;2.67;;;11.90;99.90;;;;;;6178461;23;20001;-81
2024/04/04 07:53:08;;;;;;;8.18;2.05;;;11.90;99.90;;;;;;6154632;23;20005;-81
2024/04/04 07:55:35;;;;;;;6.43;1.55;;;12.00;99.90;;;;;;6181313;23;20009;-81
2024/04/04 07:58:02;;;;;;;7.90;3.35;;;11.90;99.90;;;;;;6144556;23;20005;-89
2024/04/04 08:00:29;;;;;;;7.30;2.20;;;12.00;99.90;;;;;;6119057;23;20016;-79
2024/04/04 08:02:56;;;;;;;4.78;1.33;;;12.00;99.90;;;;;;6155030;23;20024;-83
2024/04/04 08:05:22;;;;;;;4.95;1.00;;;12.00;99.90;;;;;;6154335;23;20012;-81
2024/04/04 08:07:49;;;;;;;6.22;1.27;;;12.10;99.90;;;;;;6175385;23;20252;-80
2024/04/04 08:10:16;;;;;;;6.72;1.55;;;12.10;99.90;;;;;;6142814;23;20027;-81
2024/04/04 08:12:43;;;;;;;8.32;2.15;;;12.10;99.90;;;;;;6119688;23;20012;-82
2024/04/04 08:15:12;;;;;;;4.53;1.27;;;12.10;99.90;;;;;;6144023;23;20017;-80
2024/04/04 08:17:42;;;;;;;5.97;1.33;;;12.10;99.90;;;;;;6129328;23;20001;-82
2024/04/04 08:20:15;;;;;;;4.75;1.55;;;12.20;99.90;;;;;;6119174;23;20005;-82
2024/04/04 08:22:46;;;;;;;6.03;1.83;;;12.20;99.90;;;;;;6178887;23;20020;-83
2024/04/04 08:25:16;;;;;;;5.65;1.80;;;12.20;99.90;;;;;;6154081;23;20005;-82
2024/04/04 08:27:44;;;;;;;7.90;1.98;;;12.20;99.90;;;;;;6178685;23;20001;-81
2024/04/04 08:30:13;;;;;;;5.63;1.63;;;12.20;99.90;;;;;;6143045;23;20021;-81
2024/04/04 08:32:40;;;;;;;6.38;1.42;;;12.20;99.90;;;;;;6119186;23;20017;-80
2024/04/04 08:35:07;;;;;;;8.00;1.83;;;12.30;99.90;;;;;;6179299;23;20316;-80
2024/04/04 08:37:33;;;;;;;4.15;1.00;;;12.20;99.90;;;;;;6119119;23;20013;-80
2024/04/04 08:40:00;;;;;;;6.13;1.60;;;12.20;99.90;;;;;;6118871;23;20024;-81
2024/04/04 08:42:27;;;;;;;5.32;1.27;;;12.20;99.90;;;;;;6180223;23;20005;-80
2024/04/04 08:44:53;;;;;;;6.68;1.65;;;12.20;99.90;;;;;;6180187;23;20005;-76
2024/04/04 08:47:22;;;;;;;5.00;1.35;;;12.20;99.90;;;;;;6143637;23;20013;-80
2024/04/04 08:49:50;;;;;;;4.72;1.10;;;12.20;99.90;;;;;;6117883;23;20017;-80
2024/04/04 08:52:16;;;;;;;4.57;0.80;;;12.30;99.90;;;;;;6119679;23;20450;-79
2024/04/04 08:54:42;;;;;;;5.95;1.10;;;12.30;99.90;;;;;;6154550;23;20009;-79
2024/04/04 08:57:08;;;;;;;6.70;1.02;;;12.20;99.90;;;;;;6180418;23;20446;-80
2024/04/04 08:59:35;;;;;;;7.70;1.35;;;12.30;99.90;;;;;;6179437;23;20028;-79
2024/04/04 09:02:04;;;;;;;5.88;1.52;;;12.30;99.90;;;;;;6180673;23;20316;-79
2024/04/04 09:04:31;;;;;;;5.80;1.63;;;12.30;99.90;;;;;;6121087;23;20096;-81
2024/04/04 09:06:57;;;;;;;4.93;1.58;;;12.30;99.90;;;;;;6120810;23;20016;-77
2024/04/04 09:09:24;;;;;;;5.07;1.30;;;12.40;99.90;;;;;;6146914;23;20024;-79
2024/04/04 09:11:50;;;;;;;7.53;1.88;;;12.40;99.90;;;;;;6180833;23;20011;-81
2024/04/04 09:14:17;;;;;;;4.20;1.13;;;12.40;99.90;;;;;;6182845;23;20008;-81
2024/04/04 09:16:44;;;;;;;5.93;1.33;;;12.40;99.90;;;;;;6156123;23;20005;-79
2024/04/04 09:19:18;;;;;;;5.72;1.77;;;12.40;99.90;;;;;;6180961;23;20462;-81
2024/04/04 09:21:45;;;;;;;7.95;2.22;;;12.40;99.90;;;;;;6156775;23;20001;-82
2024/04/04 09:24:13;;;;;;;6.32;1.13;;;12.40;99.90;;;;;;6145697;23;20009;-80
2024/04/04 09:26:41;;;;;;;3.40;1.30;;;12.40;99.90;;;;;;6182268;23;20012;-80
2024/04/04 09:29:08;;;;;;;4.78;1.65;;;12.30;99.90;;;;;;6094949;23;20017;-78
2024/04/04 09:31:36;;;;;;;7.70;2.22;;;12.30;99.90;;;;;;6155881;23;20390;-81
2024/04/04 09:34:04;;;;;;;4.95;1.23;;;12.30;99.90;;;;;;6182359;23;20009;-80
2024/04/04 09:36:33;;;;;;;5.00;2.58;;;12.30;99.90;;;;;;6131266;23;20001;-81
2024/04/04 09:39:01;;;;;;;8.68;3.00;;;12.40;99.90;;;;;;6120207;23;20013;-79
2024/04/04 09:41:30;;;;;;;6.32;2.58;;;12.50;99.90;;;;;;6121289;23;20020;-80
2024/04/04 09:43:57;;;;;;;4.15;1.55;;;12.60;99.90;;;;;;6145065;23;20009;-79
2024/04/04 09:46:25;;;;;;;6.07;2.03;;;12.60;99.90;;;;;;6182164;23;20005;-81
2024/04/04 09:48:53;;;;;;;6.82;2.45;;;12.70;99.90;;;;;;6095959;23;20009;-81
2024/04/04 09:51:21;;;;;;;5.20;2.22;;;12.80;99.90;;;;;;6156037;23;20001;-81
2024/04/04 09:53:51;;;;;;;4.18;1.42;;;12.90;99.90;;;;;;6182629;23;20010;-83
2024/04/04 09:56:20;;;;;;;5.82;1.70;;;13.10;99.90;;;;;;6180924;23;20421;-82
2024/04/04 09:58:47;;;;;;;4.20;1.30;;;13.20;99.90;;;;;;6143623;23;20563;-81
2024/04/04 10:01:27;;;;;;;4.70;1.92;;;13.30;99.90;;;;;;6155934;23;20330;-82
2024/04/04 10:03:53;;;;;;;4.07;1.95;;;13.20;99.90;;;;;;6121530;23;20350;-79
2024/04/04 10:06:30;;;;;;;3.28;1.23;;;13.10;99.90;;;;;;6188462;23;20435;-80
2024/04/04 10:08:58;;;;;;;5.30;1.40;;;13.00;99.90;;;;;;6123487;23;20473;-79
2024/04/04 10:11:33;;;;;;;5.75;2.33;;;13.00;99.90;;;;;;6126149;23;20032;-81
2024/04/04 10:14:03;;;;;;;5.43;1.45;;;12.90;99.90;;;;;;6155908;23;20453;-82
2024/04/04 10:16:33;;;;;;;5.35;1.83;;;12.80;99.90;;;;;;6132551;23;20012;-82
2024/04/04 10:19:10;;;;;;;8.30;1.92;;;12.70;99.90;;;;;;6120846;23;20020;-85
2024/04/04 10:21:37;;;;;;;4.10;1.70;;;12.70;99.90;;;;;;6122809;23;20013;-76
2024/04/04 10:24:04;;;;;;;4.60;1.23;;;12.50;99.90;;;;;;6147479;23;20036;-83
2024/04/04 10:26:30;;;;;;;3.50;0.90;;;12.40;99.90;;;;;;6159601;23;20012;-90
2024/04/04 10:28:57;;;;;;;6.18;1.00;;;12.30;99.90;;;;;;6122291;23;20365;-85
2024/04/04 10:31:24;;;;;;;3.80;1.92;;;12.40;99.90;;;;;;6158292;23;20342;-84
2024/04/04 10:34:05;;;;;;;5.55;1.77;;;12.70;99.90;;;;;;6146191;23;20032;-87
2024/04/04 10:36:47;;;;;;;4.38;1.73;;;13.00;99.90;;;;;;6122723;23;20017;-87
2024/04/04 10:39:18;;;;;;;4.18;1.25;;;13.30;99.90;;;;;;6120151;23;20335;-84
2024/04/04 10:41:46;;;;;;;4.63;1.45;;;13.60;99.90;;;;;;6121297;23;20009;-86
2024/04/04 10:44:15;;;;;;;5.85;1.77;;;13.80;99.90;;;;;;6121687;23;20016;-83
2024/04/04 10:46:42;;;;;;;5.68;1.85;;;14.00;99.90;;;;;;6155795;23;20008;-87
2024/04/04 10:49:10;;;;;;;6.03;1.88;;;14.10;99.90;;;;;;6120619;23;20318;-86
2024/04/04 10:51:38;;;;;;;5.88;1.85;;;14.10;99.90;;;;;;6180698;23;20009;-87
2024/04/04 10:54:04;;;;;;;2.33;1.40;;;14.20;99.90;;;;;;6121446;23;20009;-86
2024/04/04 10:56:33;;;;;;;3.58;1.08;;;14.20;99.90;;;;;;6180767;23;20343;-88
2024/04/04 10:58:59;;;;;;;3.97;1.10;;;14.40;99.90;;;;;;6169645;23;20005;-85
2024/04/04 11:01:28;;;;;;;2.47;1.02;;;14.80;99.90;;;;;;6120917;23;20033;-87
2024/04/04 11:03:55;;;;;;;2.97;0.98;;;15.10;99.90;;;;;;6181475;23;20008;-87
2024/04/04 11:06:25;;;;;;;3.58;0.93;;;15.30;99.90;;;;;;6180891;23;20005;-79
2024/04/04 11:08:54;;;;;;;2.97;0.63;;;15.70;99.90;;;;;;6119590;23;20343;-83
2024/04/04 11:11:22;;;;;;;4.57;0.90;;;15.90;99.90;;;;;;6121490;23;20063;-86
2024/04/04 11:13:49;;;;;;;3.00;0.90;;;16.20;99.90;;;;;;6156925;23;20005;-84
2024/04/04 11:16:16;;;;;;;4.07;0.70;;;16.30;99.90;;;;;;6185576;23;20548;-90
2024/04/04 11:18:44;;;;;;;4.05;0.70;;;16.20;99.90;;;;;;6183297;23;20005;-86
2024/04/04 11:21:10;;;;;;;6.57;1.10;;;15.90;99.90;;;;;;6158690;23;20430;-79
2024/04/04 11:23:37;;;;;;;2.80;0.60;;;15.50;99.90;;;;;;6181978;23;20454;-82
2024/04/04 11:26:03;;;;;;;3.55;0.60;;;15.40;99.90;;;;;;6147276;23;20470;-82
2024/04/04 11:28:30;;;;;;;4.68;1.05;;;15.40;99.90;;;;;;6156578;23;20009;-77
2024/04/04 11:30:56;;;;;;;3.90;0.50;;;15.30;99.90;;;;;;6146234;23;20005;-77
2024/04/04 11:33:23;;;;;;;3.70;0.50;;;15.40;99.90;;;;;;6121012;23;20407;-87
2024/04/04 11:35:49;;;;;;;7.55;0.63;;;15.60;99.90;;;;;;6120747;23;20021;-85
2024/04/04 11:38:16;;;;;;;5.38;0.50;;;15.70;99.90;;;;;;6145168;23;20020;-82
2024/04/04 11:40:43;;;;;;;6.57;0.50;;;16.10;99.90;;;;;;6143045;23;20016;-85
2024/04/04 11:43:09;;;;;;;4.22;0.60;;;16.30;99.90;;;;;;6155487;23;20462;-83
2024/04/04 11:45:36;;;;;;;3.75;0.60;;;16.20;99.90;;;;;;6181585;23;20005;-81
2024/04/04 11:48:03;;;;;;;7.63;0.93;;;16.00;99.90;;;;;;6180605;23;20020;-83
2024/04/04 11:50:31;;;;;;;5.88;0.90;;;15.70;99.90;;;;;;6143609;23;20013;-85
2024/04/04 11:53:01;;;;;;;8.90;0.70;;;15.80;99.90;;;;;;6155338;23;20008;-85
2024/04/04 11:55:28;;;;;;;8.35;0.80;;;15.90;99.90;;;;;;6155393;23;20900;-84
2024/04/04 11:57:54;;;;;;;8.27;2.10;;;16.30;99.90;;;;;;6179861;23;20001;-86
2024/04/04 12:00:20;;;;;;;10.63;1.48;;;16.50;99.90;;;;;;6143700;23;20012;-85
2024/04/04 12:02:47;;;;;;;8.65;0.80;;;16.60;99.90;;;;;;6144702;23;20021;-82
2024/04/04 12:05:16;;;;;;;7.43;0.60;;;16.40;99.90;;;;;;6120658;23;20016;-84
2024/04/04 12:07:43;;;;;;;6.95;0.82;;;16.20;99.90;;;;;;6120376;23;20020;-86
2024/04/04 12:10:14;;;;;;;5.28;0.70;;;16.50;99.90;;;;;;6181316;23;20016;-83
2024/04/04 12:12:41;;;;;;;4.72;0.90;;;16.70;99.90;;;;;;6154497;23;20020;-82
2024/04/04 12:15:08;;;;;;;10.50;1.02;;;16.90;99.90;;;;;;6181040;23;20009;-86
2024/04/04 12:17:36;;;;;;;6.57;0.90;;;17.30;99.90;;;;;;6154897;23;20422;-83
2024/04/04 12:20:03;;;;;;;6.60;0.60;;;18.00;99.90;;;;;;6181564;23;20009;-82
2024/04/04 12:22:30;;;;;;;7.35;0.70;;;18.20;99.90;;;;;;6180062;23;20012;-86
2024/04/04 12:24:56;;;;;;;5.95;0.60;;;17.90;99.90;;;;;;6180092;23;20012;-85
2024/04/04 12:27:23;;;;;;;11.57;2.47;;;18.00;99.90;;;;;;6144832;23;20462;-86
2024/04/04 12:29:49;;;;;;;5.15;1.48;;;18.40;99.90;;;;;;6154556;23;20012;-86
2024/04/04 12:32:15;;;;;;;7.50;1.17;;;18.70;99.90;;;;;;6145336;23;20025;-83
2024/04/04 12:34:43;;;;;;;7.97;1.08;;;19.10;99.90;;;;;;6158030;23;20012;-87
2024/04/04 12:37:10;;;;;;;8.15;1.30;;;19.40;99.90;;;;;;6157034;23;20005;-86
2024/04/04 12:39:37;;;;;;;7.22;1.17;;;19.70;99.90;;;;;;6155282;23;20437;-83
2024/04/04 12:42:04;;;;;;;10.40;3.90;;;19.40;99.90;;;;;;6145497;23;20374;-82
2024/04/04 12:44:30;;;;;;;10.25;2.25;;;18.90;99.90;;;;;;6147319;23;20005;-83
2024/04/04 12:46:59;;;;;;;7.38;1.10;;;18.30;99.90;;;;;;6181478;23;20053;-86
2024/04/04 12:49:29;;;;;;;9.57;1.42;;;18.00;99.90;;;;;;6155737;23;20012;-77
2024/04/04 12:51:55;;;;;;;8.13;1.00;;;17.70;99.90;;;;;;6157457;23;20005;-86
2024/04/04 12:54:22;;;;;;;10.98;1.40;;;17.30;99.90;;;;;;6122306;23;20445;-80